Time,TemperatureF,DewpointF,PressureIn,WindDirection,WindDirectionDegrees,WindSpeedMPH,WindSpeedGustMPH,Humidity,HourlyPrecipIn,Conditions,Clouds,dailyrainin,SoftwareType,DateUTC
2013-05-16 00:07:00,63.1,39.0,30.03,NNE,32,0.0,-999.0,41,-99.99,,,0.00,weatherlink.com 1.10,2013-05-16 07:07:00,
2013-05-16 00:22:00,62.8,39.0,30.02,ENE,76,0.0,-999.0,41,-99.99,,,0.00,weatherlink.com 1.10,2013-05-16 07:22:00,
2013-05-16 00:37:00,62.1,39.0,30.02,ESE,110,0.0,-999.0,43,-99.99,,,0.00,weatherlink.com 1.10,2013-05-16 07:37:00,
2013-05-16 00:52:00,61.9,38.0,30.02,NNE,24,0.0,-999.0,41,-99.99,,,0.00,weatherlink.com 1.10,2013-05-16 07:52:00,
2013-05-16 01:07:00,62.3,39.0,30.02,ESE,111,0.0,-999.0,42,-99.99,,,0.00,weatherlink.com 1.10,2013-05-16 08:07:00,
2013-05-16 01:22:00,61.4,39.0,30.02,ESE,107,0.0,-999.0,44,-99.99,,,0.00,weatherlink.com 1.10,2013-05-16 08:22:00,
2013-05-16 01:37:00,61.1,38.0,30.02,NE,46,0.0,-999.0,43,-99.99,,,0.00,weatherlink.com 1.10,2013-05-16 08:37:00,
2013-05-16 01:52:00,61.3,39.0,30.01,NE,47,0.0,-999.0,44,-99.99,,,0.00,weatherlink.com 1.10,2013-05-16 08:52:00,
2013-05-16 02:07:00,61.1,38.0,30.01,NE,46,0.0,-999.0,42,-99.99,,,0.00,weatherlink.com 1.10,2013-05-16 09:07:00,
2013-05-16 02:22:00,61.6,38.0,30.00,NNE,30,0.0,-999.0,42,-99.99,,,0.00,weatherlink.com 1.10,2013-05-16 09:22:00,
2013-05-16 02:37:00,61.4,37.0,30.00,East,92,0.0,-999.0,41,-99.99,,,0.00,weatherlink.com 1.10,2013-05-16 09:37:00,
2013-05-16 02:52:00,61.1,37.0,30.00,NE,44,0.0,-999.0,41,-99.99,,,0.00,weatherlink.com 1.10,2013-05-16 09:52:00,
2013-05-16 03:07:00,60.7,37.0,30.00,NNE,17,0.0,-999.0,41,-99.99,,,0.00,weatherlink.com 1.10,2013-05-16 10:07:00,
2013-05-16 03:22:00,60.5,36.0,29.99,North,10,0.0,-999.0,41,-99.99,,,0.00,weatherlink.com 1.10,2013-05-16 10:22:00,
2013-05-16 03:37:00,60.4,37.0,29.99,East,80,0.0,-999.0,42,-99.99,,,0.00,weatherlink.com 1.10,2013-05-16 10:37:00,
2013-05-16 03:52:00,59.7,39.0,29.99,East,95,0.0,-999.0,47,-99.99,,,0.00,weatherlink.com 1.10,2013-05-16 10:52:00,
2013-05-16 04:07:00,59.0,39.0,29.99,North,5,0.0,-999.0,48,-99.99,,,0.00,weatherlink.com 1.10,2013-05-16 11:07:00,
2013-05-16 04:22:00,58.6,39.0,29.99,East,83,0.0,-999.0,48,-99.99,,,0.00,weatherlink.com 1.10,2013-05-16 11:22:00,
2013-05-16 04:37:00,58.7,39.0,29.99,WSW,254,0.0,-999.0,49,-99.99,,,0.00,weatherlink.com 1.10,2013-05-16 11:37:00,
2013-05-16 04:52:00,59.0,38.0,29.99,NNE,30,0.0,-999.0,46,-99.99,,,0.00,weatherlink.com 1.10,2013-05-16 11:52:00,
2013-05-16 05:07:00,59.0,38.0,29.99,NNE,28,0.0,-999.0,46,-99.99,,,0.00,weatherlink.com 1.10,2013-05-16 12:07:00,
2013-05-16 05:22:00,59.2,38.0,29.98,NE,42,0.0,-999.0,45,-99.99,,,0.00,weatherlink.com 1.10,2013-05-16 12:22:00,
2013-05-16 05:37:00,59.0,38.0,29.99,SE,126,0.0,-999.0,45,-99.99,,,0.00,weatherlink.com 1.10,2013-05-16 12:37:00,
2013-05-16 05:52:00,59.1,36.0,29.99,SE,125,0.0,-999.0,42,-99.99,,,0.00,weatherlink.com 1.10,2013-05-16 12:52:00,
2013-05-16 06:07:00,59.0,38.0,29.98,NE,51,0.0,-999.0,45,-99.99,,,0.00,weatherlink.com 1.10,2013-05-16 13:07:00,
2013-05-16 06:22:00,58.7,39.0,29.99,WNW,301,0.0,-999.0,48,-99.99,,,0.00,weatherlink.com 1.10,2013-05-16 13:22:00,
2013-05-16 06:37:00,58.3,39.0,30.00,ENE,71,0.0,-999.0,49,-99.99,,,0.00,weatherlink.com 1.10,2013-05-16 13:37:00,
2013-05-16 06:52:00,58.8,40.0,30.01,East,82,0.0,-999.0,50,-99.99,,,0.00,weatherlink.com 1.10,2013-05-16 13:52:00,
2013-05-16 07:07:00,59.1,41.0,30.00,ENE,74,0.0,-999.0,52,-99.99,,,0.00,weatherlink.com 1.10,2013-05-16 14:07:00,
2013-05-16 07:22:00,59.4,42.0,30.01,ENE,74,0.0,-999.0,53,-99.99,,,0.00,weatherlink.com 1.10,2013-05-16 14:22:00,
2013-05-16 07:37:00,59.5,43.0,30.02,ENE,75,0.0,-999.0,54,-99.99,,,0.00,weatherlink.com 1.10,2013-05-16 14:37:00,
2013-05-16 07:52:00,60.4,42.0,30.02,ESE,115,0.0,-999.0,52,-99.99,,,0.00,weatherlink.com 1.10,2013-05-16 14:52:00,
2013-05-16 08:07:00,60.7,44.0,30.02,WSW,242,0.0,-999.0,54,-99.99,,,0.00,weatherlink.com 1.10,2013-05-16 15:07:00,
2013-05-16 08:22:00,62.0,44.0,30.02,SSE,157,0.0,-999.0,52,-99.99,,,0.00,weatherlink.com 1.10,2013-05-16 15:22:00,
2013-05-16 08:37:00,59.9,43.0,30.02,North,355,0.0,-999.0,55,-99.99,,,0.00,weatherlink.com 1.10,2013-05-16 15:37:00,
2013-05-16 08:52:00,61.3,44.0,30.02,ESE,107,1.0,-999.0,54,-99.99,,,0.00,weatherlink.com 1.10,2013-05-16 15:52:00,
2013-05-16 09:07:00,61.0,44.0,30.03,ENE,68,0.0,-999.0,54,-99.99,,,0.00,weatherlink.com 1.10,2013-05-16 16:07:00,
2013-05-16 09:22:00,64.4,45.0,30.03,SW,214,0.0,-999.0,50,-99.99,,,0.00,weatherlink.com 1.10,2013-05-16 16:22:00,
2013-05-16 09:37:00,63.2,43.0,30.03,NNE,31,0.0,-999.0,48,-99.99,,,0.00,weatherlink.com 1.10,2013-05-16 16:37:00,
2013-05-16 09:52:00,62.1,45.0,30.03,West,264,0.0,-999.0,53,-99.99,,,0.00,weatherlink.com 1.10,2013-05-16 16:52:00,
2013-05-16 10:07:00,61.9,45.0,30.04,SW,219,0.0,-999.0,55,-99.99,,,0.00,weatherlink.com 1.10,2013-05-16 17:07:00,
2013-05-16 10:22:00,62.0,46.0,30.04,SW,234,0.0,-999.0,57,-99.99,,,0.00,weatherlink.com 1.10,2013-05-16 17:22:00,
2013-05-16 10:37:00,62.6,48.0,30.04,SW,234,0.0,-999.0,60,-99.99,,,0.00,weatherlink.com 1.10,2013-05-16 17:37:00,
2013-05-16 10:52:00,64.8,49.0,30.04,SE,128,0.0,-999.0,57,-99.99,,,0.00,weatherlink.com 1.10,2013-05-16 17:52:00,
2013-05-16 11:07:00,66.9,51.0,30.03,SSW,196,0.0,-999.0,56,-99.99,,,0.00,weatherlink.com 1.10,2013-05-16 18:07:00,
2013-05-16 11:22:00,65.9,50.0,30.04,West,264,0.0,-999.0,56,-99.99,,,0.00,weatherlink.com 1.10,2013-05-16 18:22:00,
2013-05-16 11:37:00,65.7,49.0,30.04,WSW,248,0.0,-999.0,56,-99.99,,,0.00,weatherlink.com 1.10,2013-05-16 18:37:00,
2013-05-16 11:52:00,65.1,50.0,30.04,WSW,256,1.0,-999.0,59,-99.99,,,0.00,weatherlink.com 1.10,2013-05-16 18:52:00,
2013-05-16 12:07:00,66.3,49.0,30.04,West,264,0.0,-999.0,54,-99.99,,,0.00,weatherlink.com 1.10,2013-05-16 19:07:00,
2013-05-16 12:22:00,65.0,49.0,30.03,SW,223,0.0,-999.0,56,-99.99,,,0.00,weatherlink.com 1.10,2013-05-16 19:22:00,
2013-05-16 12:37:00,66.2,48.0,30.04,SW,226,2.0,-999.0,52,-99.99,,,0.00,weatherlink.com 1.10,2013-05-16 19:37:00,
2013-05-16 12:52:00,64.9,49.0,30.03,SSW,194,0.0,-999.0,57,-99.99,,,0.00,weatherlink.com 1.10,2013-05-16 19:52:00,
2013-05-16 13:07:00,65.0,50.0,30.04,WSW,246,0.0,-999.0,58,-99.99,,,0.00,weatherlink.com 1.10,2013-05-16 20:07:00,
2013-05-16 13:22:00,64.4,50.0,30.03,West,259,0.0,-999.0,61,-99.99,,,0.00,weatherlink.com 1.10,2013-05-16 20:22:00,
2013-05-16 13:37:00,65.9,52.0,30.03,WSW,249,0.0,-999.0,61,-99.99,,,0.00,weatherlink.com 1.10,2013-05-16 20:37:00,
2013-05-16 13:52:00,66.8,52.0,30.02,WSW,248,1.0,-999.0,60,-99.99,,,0.00,weatherlink.com 1.10,2013-05-16 20:52:00,
2013-05-16 14:07:00,67.8,53.0,30.02,SW,219,2.0,-999.0,59,-99.99,,,0.00,weatherlink.com 1.10,2013-05-16 21:07:00,
2013-05-16 14:22:00,67.0,52.0,30.01,WSW,247,2.0,-999.0,59,-99.99,,,0.00,weatherlink.com 1.10,2013-05-16 21:22:00,
2013-05-16 14:37:00,68.5,52.0,30.01,WSW,238,2.0,-999.0,57,-99.99,,,0.00,weatherlink.com 1.10,2013-05-16 21:37:00,
2013-05-16 14:52:00,69.6,53.0,30.00,SW,219,2.0,-999.0,56,-99.99,,,0.00,weatherlink.com 1.10,2013-05-16 21:52:00,
2013-05-16 15:07:00,70.6,52.0,30.01,WSW,251,0.0,-999.0,53,-99.99,,,0.00,weatherlink.com 1.10,2013-05-16 22:07:00,
2013-05-16 15:22:00,69.1,52.0,30.00,WSW,238,3.0,-999.0,54,-99.99,,,0.00,weatherlink.com 1.10,2013-05-16 22:22:00,
2013-05-16 15:37:00,68.4,52.0,30.00,SW,234,2.0,-999.0,57,-99.99,,,0.00,weatherlink.com 1.10,2013-05-16 22:37:00,
2013-05-16 15:52:00,65.7,52.0,29.99,SW,234,1.0,-999.0,62,-99.99,,,0.00,weatherlink.com 1.10,2013-05-16 22:52:00,
2013-05-16 16:07:00,67.3,52.0,29.98,WSW,248,1.0,-999.0,58,-99.99,,,0.00,weatherlink.com 1.10,2013-05-16 23:07:00,
2013-05-16 16:22:00,67.8,52.0,29.99,WSW,247,1.0,-999.0,58,-99.99,,,0.00,weatherlink.com 1.10,2013-05-16 23:22:00,
2013-05-16 16:37:00,67.7,51.0,29.98,WSW,248,1.0,-999.0,55,-99.99,,,0.00,weatherlink.com 1.10,2013-05-16 23:37:00,
2013-05-16 16:52:00,66.5,51.0,29.98,WSW,244,2.0,-999.0,58,-99.99,,,0.00,weatherlink.com 1.10,2013-05-16 23:52:00,
2013-05-16 17:07:00,66.3,51.0,29.98,SSW,197,0.0,-999.0,58,-99.99,,,0.00,weatherlink.com 1.10,2013-05-17 00:07:00,
2013-05-16 17:22:00,66.9,51.0,29.99,South,188,0.0,-999.0,57,-99.99,,,0.00,weatherlink.com 1.10,2013-05-17 00:22:00,
2013-05-16 17:37:00,65.8,50.0,29.99,SW,223,1.0,-999.0,58,-99.99,,,0.00,weatherlink.com 1.10,2013-05-17 00:37:00,
2013-05-16 17:52:00,65.4,50.0,29.99,SW,232,2.0,-999.0,58,-99.99,,,0.00,weatherlink.com 1.10,2013-05-17 00:52:00,
2013-05-16 18:07:00,65.2,50.0,29.98,SW,236,3.0,-999.0,59,-99.99,,,0.00,weatherlink.com 1.10,2013-05-17 01:07:00,
2013-05-16 18:22:00,65.1,48.0,29.99,West,264,0.0,-999.0,55,-99.99,,,0.00,weatherlink.com 1.10,2013-05-17 01:22:00,
2013-05-16 18:37:00,65.5,50.0,29.98,West,260,0.0,-999.0,57,-99.99,,,0.00,weatherlink.com 1.10,2013-05-17 01:37:00,
2013-05-16 18:52:00,63.7,49.0,29.98,WSW,237,0.0,-999.0,60,-99.99,,,0.00,weatherlink.com 1.10,2013-05-17 01:52:00,
2013-05-16 19:07:00,63.6,49.0,29.98,WSW,250,0.0,-999.0,59,-99.99,,,0.00,weatherlink.com 1.10,2013-05-17 02:07:00,
2013-05-16 19:22:00,63.3,48.0,29.98,West,274,0.0,-999.0,58,-99.99,,,0.00,weatherlink.com 1.10,2013-05-17 02:22:00,
2013-05-16 19:37:00,62.7,48.0,29.98,West,275,0.0,-999.0,59,-99.99,,,0.00,weatherlink.com 1.10,2013-05-17 02:37:00,
2013-05-16 19:52:00,61.9,47.0,29.99,West,271,0.0,-999.0,59,-99.99,,,0.00,weatherlink.com 1.10,2013-05-17 02:52:00,
2013-05-16 20:07:00,60.9,46.0,29.99,WNW,300,0.0,-999.0,59,-99.99,,,0.00,weatherlink.com 1.10,2013-05-17 03:07:00,
2013-05-16 20:22:00,59.8,46.0,29.99,NE,34,0.0,-999.0,60,-99.99,,,0.00,weatherlink.com 1.10,2013-05-17 03:22:00,
2013-05-16 20:37:00,59.0,47.0,29.99,NE,34,0.0,-999.0,64,-99.99,,,0.00,weatherlink.com 1.10,2013-05-17 03:37:00,
2013-05-16 20:52:00,58.2,46.0,30.00,NE,34,0.0,-999.0,65,-99.99,,,0.00,weatherlink.com 1.10,2013-05-17 03:52:00,
2013-05-16 21:07:00,57.3,46.0,29.99,NE,56,0.0,-999.0,65,-99.99,,,0.00,weatherlink.com 1.10,2013-05-17 04:07:00,
2013-05-16 21:22:00,57.0,45.0,30.00,ESE,107,0.0,-999.0,65,-99.99,,,0.00,weatherlink.com 1.10,2013-05-17 04:22:00,
2013-05-16 21:37:00,56.5,45.0,30.01,ESE,107,0.0,-999.0,66,-99.99,,,0.00,weatherlink.com 1.10,2013-05-17 04:37:00,
2013-05-16 21:52:00,56.2,45.0,30.01,SE,137,0.0,-999.0,66,-99.99,,,0.00,weatherlink.com 1.10,2013-05-17 04:52:00,
2013-05-16 22:07:00,56.0,45.0,30.01,SE,138,0.0,-999.0,67,-99.99,,,0.00,weatherlink.com 1.10,2013-05-17 05:07:00,
2013-05-16 22:22:00,56.2,45.0,30.01,NE,49,0.0,-999.0,67,-99.99,,,0.00,weatherlink.com 1.10,2013-05-17 05:22:00,
2013-05-16 22:37:00,56.1,45.0,30.01,ENE,59,0.0,-999.0,67,-99.99,,,0.00,weatherlink.com 1.10,2013-05-17 05:37:00,
2013-05-16 22:52:00,55.9,45.0,30.00,ENE,67,0.0,-999.0,67,-99.99,,,0.00,weatherlink.com 1.10,2013-05-17 05:52:00,
2013-05-16 23:07:00,55.5,45.0,30.00,ENE,72,0.0,-999.0,67,-99.99,,,0.00,weatherlink.com 1.10,2013-05-17 06:07:00,
2013-05-16 23:22:00,55.1,45.0,30.00,ENE,57,0.0,-999.0,68,-99.99,,,0.00,weatherlink.com 1.10,2013-05-17 06:22:00,
2013-05-16 23:37:00,54.8,44.0,30.00,ENE,57,0.0,-999.0,67,-99.99,,,0.00,weatherlink.com 1.10,2013-05-17 06:37:00,
2013-05-16 23:52:00,54.4,43.0,30.00,ENE,57,0.0,-999.0,65,-99.99,,,0.00,weatherlink.com 1.10,2013-05-17 06:52:00,